Anaktuvuk, Alaska
Current Conditions -  °F | °C
As of 8:36 PM on Friday 31 Oct 2014 (Local Time) from PAKP Reporting Station
Overcast Overcast  
Wind Chill: -16°   Ceiling: 1700
Heat Index:   Visibility: 2mi
Dew Point: -6°   Wind: 16mph
Humidity: 66%   Direction: 30°NNE
Pressure: 29.61"   Gusts: 21mph
Location:  68.565°N, 152.085°W
Report Text: PAKP 010436Z AUTO 03014G18KT 2SM OVC017 M16/M21 A2961 RMK AO1
Loading
Personal Weather Stations






























Interactive Weather Map
Tropical Storm Tracking
New forecast layout! Learn more

10-Day Weather Forecast

Advertisements
Track Severe Weather on mobile